Terminal Aerodrome Forecast
Issued by NWS Twin Cities, MN

Home | Current Version | Previous Version | Text Only | Print | Product List | Glossary Off
Versions: 1 2 3 4 5 6 7 8 9 10 11 12 13 14 15 16 17 18

849
FTUS43 KMPX 090951 AAA
TAFSTC
TAF AMD
KSTC 090951Z 0910/1006 33012G20KT P6SM SCT025
     FM091200 32011G19KT P6SM SKC
     FM100100 31010KT P6SM SKC=

USA.gov is the U.S. government's official web portal to all federal, state and local government web resources and services.